<?xml version="1.0" encoding="UTF-8" standalone="no" ?>
<gpx xmlns="http://www.topografix.com/GPX/1/1" xmlns:xsi="http://www.w3.org/2001/XMLSchema-instance" xsi:schemaLocation="http://www.topografix.com/GPX/1/1 http://www.topografix.com/GPX/1/1/gpx.xsd" version="1.1" creator="VisuGPX - https://www.visugpx.com">
  <metadata>
    <name>Croix de l'Alpe</name>
    <desc><![CDATA[Les Varvats - Col de l'Alpe - Croix de l'Alpe]]></desc>
  </metadata>
  <trk>
    <name><![CDATA[20180201115808-iQ9dp]]></name>
    <trkseg>
      <trkpt lat="45.4044" lon="5.89629">
        <ele>1130.8</ele>
        <time>2018-01-31T08:07:44Z</time>
      </trkpt>
      <trkpt lat="45.40437" lon="5.89664">
        <ele>1129.8</ele>
        <time>2018-01-31T08:08:15Z</time>
      </trkpt>
      <trkpt lat="45.40434" lon="5.89704">
        <ele>1134.5</ele>
        <time>2018-01-31T08:08:46Z</time>
      </trkpt>
      <trkpt lat="45.40424" lon="5.8974">
        <ele>1134.6</ele>
        <time>2018-01-31T08:09:16Z</time>
      </trkpt>
      <trkpt lat="45.40411" lon="5.89777">
        <ele>1135.7</ele>
        <time>2018-01-31T08:09:46Z</time>
      </trkpt>
      <trkpt lat="45.40407" lon="5.89811">
        <ele>1142</ele>
        <time>2018-01-31T08:10:17Z</time>
      </trkpt>
      <trkpt lat="45.40406" lon="5.89847">
        <ele>1148.2</ele>
        <time>2018-01-31T08:10:53Z</time>
      </trkpt>
      <trkpt lat="45.40409" lon="5.89854">
        <ele>1151.9</ele>
        <time>2018-01-31T08:11:30Z</time>
      </trkpt>
      <trkpt lat="45.40397" lon="5.89856">
        <ele>1142.3</ele>
        <time>2018-01-31T08:12:59Z</time>
      </trkpt>
      <trkpt lat="45.40399" lon="5.89869">
        <ele>1147.6</ele>
        <time>2018-01-31T08:13:59Z</time>
      </trkpt>
      <trkpt lat="45.40387" lon="5.89889">
        <ele>1147.8</ele>
        <time>2018-01-31T08:14:49Z</time>
      </trkpt>
      <trkpt lat="45.40377" lon="5.89921">
        <ele>1153.7</ele>
        <time>2018-01-31T08:15:33Z</time>
      </trkpt>
      <trkpt lat="45.40366" lon="5.89943">
        <ele>1155.7</ele>
        <time>2018-01-31T08:16:10Z</time>
      </trkpt>
      <trkpt lat="45.40361" lon="5.8997">
        <ele>1164.1</ele>
        <time>2018-01-31T08:16:49Z</time>
      </trkpt>
      <trkpt lat="45.40356" lon="5.89992">
        <ele>1170.6</ele>
        <time>2018-01-31T08:17:28Z</time>
      </trkpt>
      <trkpt lat="45.40362" lon="5.90014">
        <ele>1178.9</ele>
        <time>2018-01-31T08:18:11Z</time>
      </trkpt>
      <trkpt lat="45.40353" lon="5.90038">
        <ele>1183.1</ele>
        <time>2018-01-31T08:18:54Z</time>
      </trkpt>
      <trkpt lat="45.40351" lon="5.90068">
        <ele>1198.1</ele>
        <time>2018-01-31T08:19:34Z</time>
      </trkpt>
      <trkpt lat="45.40346" lon="5.90093">
        <ele>1205.2</ele>
        <time>2018-01-31T08:20:21Z</time>
      </trkpt>
      <trkpt lat="45.40344" lon="5.90119">
        <ele>1208</ele>
        <time>2018-01-31T08:21:01Z</time>
      </trkpt>
      <trkpt lat="45.4035" lon="5.9014">
        <ele>1214.8</ele>
        <time>2018-01-31T08:21:34Z</time>
      </trkpt>
      <trkpt lat="45.40352" lon="5.90158">
        <ele>1220.1</ele>
        <time>2018-01-31T08:22:20Z</time>
      </trkpt>
      <trkpt lat="45.40338" lon="5.90173">
        <ele>1220.4</ele>
        <time>2018-01-31T08:23:06Z</time>
      </trkpt>
      <trkpt lat="45.40331" lon="5.90192">
        <ele>1224.3</ele>
        <time>2018-01-31T08:23:48Z</time>
      </trkpt>
      <trkpt lat="45.40331" lon="5.90216">
        <ele>1230.4</ele>
        <time>2018-01-31T08:24:24Z</time>
      </trkpt>
      <trkpt lat="45.4033" lon="5.90231">
        <ele>1233.5</ele>
        <time>2018-01-31T08:25:21Z</time>
      </trkpt>
      <trkpt lat="45.40336" lon="5.9024">
        <ele>1238.9</ele>
        <time>2018-01-31T08:26:04Z</time>
      </trkpt>
      <trkpt lat="45.40338" lon="5.9026">
        <ele>1243.2</ele>
        <time>2018-01-31T08:26:53Z</time>
      </trkpt>
      <trkpt lat="45.40338" lon="5.90287">
        <ele>1247.6</ele>
        <time>2018-01-31T08:27:23Z</time>
      </trkpt>
      <trkpt lat="45.40344" lon="5.90305">
        <ele>1254.2</ele>
        <time>2018-01-31T08:27:59Z</time>
      </trkpt>
      <trkpt lat="45.40359" lon="5.9029">
        <ele>1257.3</ele>
        <time>2018-01-31T08:28:45Z</time>
      </trkpt>
      <trkpt lat="45.40362" lon="5.90306">
        <ele>1261.2</ele>
        <time>2018-01-31T08:29:25Z</time>
      </trkpt>
      <trkpt lat="45.40368" lon="5.90323">
        <ele>1266.4</ele>
        <time>2018-01-31T08:29:53Z</time>
      </trkpt>
      <trkpt lat="45.40373" lon="5.90346">
        <ele>1273.9</ele>
        <time>2018-01-31T08:30:30Z</time>
      </trkpt>
      <trkpt lat="45.40371" lon="5.9037">
        <ele>1279.6</ele>
        <time>2018-01-31T08:31:13Z</time>
      </trkpt>
      <trkpt lat="45.40359" lon="5.90387">
        <ele>1279.4</ele>
        <time>2018-01-31T08:31:56Z</time>
      </trkpt>
      <trkpt lat="45.40353" lon="5.90403">
        <ele>1284.2</ele>
        <time>2018-01-31T08:32:44Z</time>
      </trkpt>
      <trkpt lat="45.40347" lon="5.90408">
        <ele>1286.5</ele>
        <time>2018-01-31T08:33:42Z</time>
      </trkpt>
      <trkpt lat="45.40352" lon="5.90412">
        <ele>1287.4</ele>
        <time>2018-01-31T08:34:27Z</time>
      </trkpt>
      <trkpt lat="45.40344" lon="5.90408">
        <ele>1286.5</ele>
        <time>2018-01-31T08:35:00Z</time>
      </trkpt>
      <trkpt lat="45.40352" lon="5.90411">
        <ele>1287.2</ele>
        <time>2018-01-31T08:35:49Z</time>
      </trkpt>
      <trkpt lat="45.40353" lon="5.90405">
        <ele>1284.9</ele>
        <time>2018-01-31T08:36:43Z</time>
      </trkpt>
      <trkpt lat="45.40359" lon="5.90405">
        <ele>1284.9</ele>
        <time>2018-01-31T08:37:54Z</time>
      </trkpt>
      <trkpt lat="45.40356" lon="5.90417">
        <ele>1288.9</ele>
        <time>2018-01-31T08:38:47Z</time>
      </trkpt>
      <trkpt lat="45.40357" lon="5.90431">
        <ele>1294.8</ele>
        <time>2018-01-31T08:39:32Z</time>
      </trkpt>
      <trkpt lat="45.40373" lon="5.90444">
        <ele>1302.8</ele>
        <time>2018-01-31T08:40:04Z</time>
      </trkpt>
      <trkpt lat="45.4037" lon="5.90461">
        <ele>1309.7</ele>
        <time>2018-01-31T08:40:47Z</time>
      </trkpt>
      <trkpt lat="45.4037" lon="5.90467">
        <ele>1312.4</ele>
        <time>2018-01-31T08:41:31Z</time>
      </trkpt>
      <trkpt lat="45.40377" lon="5.9048">
        <ele>1319.1</ele>
        <time>2018-01-31T08:42:13Z</time>
      </trkpt>
      <trkpt lat="45.40368" lon="5.90487">
        <ele>1322.1</ele>
        <time>2018-01-31T08:42:45Z</time>
      </trkpt>
      <trkpt lat="45.40361" lon="5.90491">
        <ele>1323.4</ele>
        <time>2018-01-31T08:43:45Z</time>
      </trkpt>
      <trkpt lat="45.4037" lon="5.90505">
        <ele>1331.5</ele>
        <time>2018-01-31T08:44:35Z</time>
      </trkpt>
      <trkpt lat="45.40369" lon="5.90519">
        <ele>1339.7</ele>
        <time>2018-01-31T08:45:29Z</time>
      </trkpt>
      <trkpt lat="45.40369" lon="5.90529">
        <ele>1345.7</ele>
        <time>2018-01-31T08:46:09Z</time>
      </trkpt>
      <trkpt lat="45.40356" lon="5.90524">
        <ele>1344.5</ele>
        <time>2018-01-31T08:46:49Z</time>
      </trkpt>
      <trkpt lat="45.40341" lon="5.90524">
        <ele>1350.3</ele>
        <time>2018-01-31T08:47:29Z</time>
      </trkpt>
      <trkpt lat="45.40336" lon="5.90535">
        <ele>1362.9</ele>
        <time>2018-01-31T08:48:31Z</time>
      </trkpt>
      <trkpt lat="45.40335" lon="5.90541">
        <ele>1369.9</ele>
        <time>2018-01-31T08:49:23Z</time>
      </trkpt>
      <trkpt lat="45.40351" lon="5.90544">
        <ele>1364.6</ele>
        <time>2018-01-31T08:50:09Z</time>
      </trkpt>
      <trkpt lat="45.40366" lon="5.90556">
        <ele>1369.8</ele>
        <time>2018-01-31T08:50:45Z</time>
      </trkpt>
      <trkpt lat="45.40361" lon="5.90567">
        <ele>1379.9</ele>
        <time>2018-01-31T08:51:21Z</time>
      </trkpt>
      <trkpt lat="45.40364" lon="5.90572">
        <ele>1384.4</ele>
        <time>2018-01-31T08:51:56Z</time>
      </trkpt>
      <trkpt lat="45.40373" lon="5.90583">
        <ele>1389.7</ele>
        <time>2018-01-31T08:52:33Z</time>
      </trkpt>
      <trkpt lat="45.40385" lon="5.90595">
        <ele>1391</ele>
        <time>2018-01-31T08:53:23Z</time>
      </trkpt>
      <trkpt lat="45.40397" lon="5.9061">
        <ele>1396.6</ele>
        <time>2018-01-31T08:54:09Z</time>
      </trkpt>
      <trkpt lat="45.40402" lon="5.90624">
        <ele>1403.2</ele>
        <time>2018-01-31T08:54:45Z</time>
      </trkpt>
      <trkpt lat="45.40404" lon="5.90638">
        <ele>1408.4</ele>
        <time>2018-01-31T08:55:25Z</time>
      </trkpt>
      <trkpt lat="45.40406" lon="5.90654">
        <ele>1413.5</ele>
        <time>2018-01-31T08:56:08Z</time>
      </trkpt>
      <trkpt lat="45.40419" lon="5.9067">
        <ele>1414.3</ele>
        <time>2018-01-31T08:56:47Z</time>
      </trkpt>
      <trkpt lat="45.40428" lon="5.90691">
        <ele>1425.1</ele>
        <time>2018-01-31T08:57:29Z</time>
      </trkpt>
      <trkpt lat="45.40441" lon="5.90707">
        <ele>1428.9</ele>
        <time>2018-01-31T08:58:13Z</time>
      </trkpt>
      <trkpt lat="45.40455" lon="5.90716">
        <ele>1437.5</ele>
        <time>2018-01-31T08:58:44Z</time>
      </trkpt>
      <trkpt lat="45.40472" lon="5.90723">
        <ele>1451.3</ele>
        <time>2018-01-31T08:59:13Z</time>
      </trkpt>
      <trkpt lat="45.40482" lon="5.9074">
        <ele>1452.8</ele>
        <time>2018-01-31T08:59:49Z</time>
      </trkpt>
      <trkpt lat="45.40486" lon="5.9076">
        <ele>1452.1</ele>
        <time>2018-01-31T09:00:27Z</time>
      </trkpt>
      <trkpt lat="45.40489" lon="5.90783">
        <ele>1450.5</ele>
        <time>2018-01-31T09:01:07Z</time>
      </trkpt>
      <trkpt lat="45.405" lon="5.90802">
        <ele>1450</ele>
        <time>2018-01-31T09:01:44Z</time>
      </trkpt>
      <trkpt lat="45.40507" lon="5.90824">
        <ele>1451.1</ele>
        <time>2018-01-31T09:02:19Z</time>
      </trkpt>
      <trkpt lat="45.4051" lon="5.90855">
        <ele>1450.1</ele>
        <time>2018-01-31T09:02:55Z</time>
      </trkpt>
      <trkpt lat="45.40517" lon="5.90881">
        <ele>1449.8</ele>
        <time>2018-01-31T09:04:01Z</time>
      </trkpt>
      <trkpt lat="45.40524" lon="5.90892">
        <ele>1450</ele>
        <time>2018-01-31T09:06:52Z</time>
      </trkpt>
      <trkpt lat="45.40534" lon="5.90913">
        <ele>1451.6</ele>
        <time>2018-01-31T09:07:14Z</time>
      </trkpt>
      <trkpt lat="45.40545" lon="5.90934">
        <ele>1452.5</ele>
        <time>2018-01-31T09:07:37Z</time>
      </trkpt>
      <trkpt lat="45.40556" lon="5.90958">
        <ele>1453.5</ele>
        <time>2018-01-31T09:08:02Z</time>
      </trkpt>
      <trkpt lat="45.40567" lon="5.90982">
        <ele>1455.3</ele>
        <time>2018-01-31T09:08:26Z</time>
      </trkpt>
      <trkpt lat="45.40581" lon="5.91001">
        <ele>1456</ele>
        <time>2018-01-31T09:08:49Z</time>
      </trkpt>
      <trkpt lat="45.40591" lon="5.91026">
        <ele>1460</ele>
        <time>2018-01-31T09:09:13Z</time>
      </trkpt>
      <trkpt lat="45.40602" lon="5.91051">
        <ele>1461.6</ele>
        <time>2018-01-31T09:09:40Z</time>
      </trkpt>
      <trkpt lat="45.40615" lon="5.91077">
        <ele>1463.3</ele>
        <time>2018-01-31T09:10:09Z</time>
      </trkpt>
      <trkpt lat="45.40634" lon="5.91088">
        <ele>1467.6</ele>
        <time>2018-01-31T09:10:43Z</time>
      </trkpt>
      <trkpt lat="45.40654" lon="5.91089">
        <ele>1477.9</ele>
        <time>2018-01-31T09:11:22Z</time>
      </trkpt>
      <trkpt lat="45.40661" lon="5.91117">
        <ele>1478.2</ele>
        <time>2018-01-31T09:12:00Z</time>
      </trkpt>
      <trkpt lat="45.40666" lon="5.91148">
        <ele>1479.5</ele>
        <time>2018-01-31T09:12:32Z</time>
      </trkpt>
      <trkpt lat="45.40676" lon="5.91173">
        <ele>1485.9</ele>
        <time>2018-01-31T09:13:04Z</time>
      </trkpt>
      <trkpt lat="45.40693" lon="5.91193">
        <ele>1485.7</ele>
        <time>2018-01-31T09:13:39Z</time>
      </trkpt>
      <trkpt lat="45.40704" lon="5.91218">
        <ele>1492.7</ele>
        <time>2018-01-31T09:14:13Z</time>
      </trkpt>
      <trkpt lat="45.40717" lon="5.9124">
        <ele>1492.6</ele>
        <time>2018-01-31T09:14:45Z</time>
      </trkpt>
      <trkpt lat="45.4073" lon="5.91262">
        <ele>1495.8</ele>
        <time>2018-01-31T09:15:26Z</time>
      </trkpt>
      <trkpt lat="45.40748" lon="5.91259">
        <ele>1499.2</ele>
        <time>2018-01-31T09:16:04Z</time>
      </trkpt>
      <trkpt lat="45.40758" lon="5.91282">
        <ele>1501.6</ele>
        <time>2018-01-31T09:16:38Z</time>
      </trkpt>
      <trkpt lat="45.40771" lon="5.91308">
        <ele>1504.4</ele>
        <time>2018-01-31T09:17:06Z</time>
      </trkpt>
      <trkpt lat="45.40781" lon="5.91334">
        <ele>1508.2</ele>
        <time>2018-01-31T09:17:48Z</time>
      </trkpt>
      <trkpt lat="45.40797" lon="5.9134">
        <ele>1514.6</ele>
        <time>2018-01-31T09:18:30Z</time>
      </trkpt>
      <trkpt lat="45.408" lon="5.91365">
        <ele>1514.4</ele>
        <time>2018-01-31T09:19:05Z</time>
      </trkpt>
      <trkpt lat="45.40812" lon="5.9136">
        <ele>1517.7</ele>
        <time>2018-01-31T09:19:58Z</time>
      </trkpt>
      <trkpt lat="45.4082" lon="5.91349">
        <ele>1519</ele>
        <time>2018-01-31T09:21:28Z</time>
      </trkpt>
      <trkpt lat="45.40839" lon="5.91349">
        <ele>1520.6</ele>
        <time>2018-01-31T09:21:57Z</time>
      </trkpt>
      <trkpt lat="45.40847" lon="5.91375">
        <ele>1520.5</ele>
        <time>2018-01-31T09:22:25Z</time>
      </trkpt>
      <trkpt lat="45.40846" lon="5.91405">
        <ele>1519.8</ele>
        <time>2018-01-31T09:22:51Z</time>
      </trkpt>
      <trkpt lat="45.40842" lon="5.91417">
        <ele>1519.3</ele>
        <time>2018-01-31T09:25:32Z</time>
      </trkpt>
      <trkpt lat="45.40843" lon="5.91426">
        <ele>1519.7</ele>
        <time>2018-01-31T09:28:43Z</time>
      </trkpt>
      <trkpt lat="45.40852" lon="5.91446">
        <ele>1521.7</ele>
        <time>2018-01-31T09:29:45Z</time>
      </trkpt>
      <trkpt lat="45.40861" lon="5.91469">
        <ele>1523</ele>
        <time>2018-01-31T09:30:09Z</time>
      </trkpt>
      <trkpt lat="45.40874" lon="5.91488">
        <ele>1525.3</ele>
        <time>2018-01-31T09:30:32Z</time>
      </trkpt>
      <trkpt lat="45.40889" lon="5.91507">
        <ele>1527.7</ele>
        <time>2018-01-31T09:30:58Z</time>
      </trkpt>
      <trkpt lat="45.40905" lon="5.91525">
        <ele>1533.8</ele>
        <time>2018-01-31T09:31:31Z</time>
      </trkpt>
      <trkpt lat="45.4091" lon="5.91554">
        <ele>1538.2</ele>
        <time>2018-01-31T09:32:05Z</time>
      </trkpt>
      <trkpt lat="45.40927" lon="5.91565">
        <ele>1544.3</ele>
        <time>2018-01-31T09:32:51Z</time>
      </trkpt>
      <trkpt lat="45.40947" lon="5.91573">
        <ele>1550.7</ele>
        <time>2018-01-31T09:33:30Z</time>
      </trkpt>
      <trkpt lat="45.40954" lon="5.91599">
        <ele>1555.8</ele>
        <time>2018-01-31T09:34:13Z</time>
      </trkpt>
      <trkpt lat="45.40954" lon="5.91622">
        <ele>1560.5</ele>
        <time>2018-01-31T09:35:14Z</time>
      </trkpt>
      <trkpt lat="45.40939" lon="5.91632">
        <ele>1558.8</ele>
        <time>2018-01-31T09:35:55Z</time>
      </trkpt>
      <trkpt lat="45.40935" lon="5.91649">
        <ele>1563.6</ele>
        <time>2018-01-31T09:38:25Z</time>
      </trkpt>
      <trkpt lat="45.40939" lon="5.91668">
        <ele>1565.3</ele>
        <time>2018-01-31T09:39:13Z</time>
      </trkpt>
      <trkpt lat="45.40951" lon="5.91684">
        <ele>1570.4</ele>
        <time>2018-01-31T09:40:06Z</time>
      </trkpt>
      <trkpt lat="45.4096" lon="5.91709">
        <ele>1578.2</ele>
        <time>2018-01-31T09:40:40Z</time>
      </trkpt>
      <trkpt lat="45.40976" lon="5.91722">
        <ele>1575</ele>
        <time>2018-01-31T09:41:09Z</time>
      </trkpt>
      <trkpt lat="45.40989" lon="5.91742">
        <ele>1580.4</ele>
        <time>2018-01-31T09:41:36Z</time>
      </trkpt>
      <trkpt lat="45.41008" lon="5.91751">
        <ele>1577.1</ele>
        <time>2018-01-31T09:42:01Z</time>
      </trkpt>
      <trkpt lat="45.41026" lon="5.91769">
        <ele>1578</ele>
        <time>2018-01-31T09:42:24Z</time>
      </trkpt>
      <trkpt lat="45.41041" lon="5.91785">
        <ele>1580</ele>
        <time>2018-01-31T09:42:44Z</time>
      </trkpt>
      <trkpt lat="45.41054" lon="5.91805">
        <ele>1581.2</ele>
        <time>2018-01-31T09:43:07Z</time>
      </trkpt>
      <trkpt lat="45.41067" lon="5.91825">
        <ele>1583.5</ele>
        <time>2018-01-31T09:44:10Z</time>
      </trkpt>
      <trkpt lat="45.41078" lon="5.9184">
        <ele>1584.6</ele>
        <time>2018-01-31T09:44:52Z</time>
      </trkpt>
      <trkpt lat="45.41094" lon="5.91855">
        <ele>1585.3</ele>
        <time>2018-01-31T09:45:30Z</time>
      </trkpt>
      <trkpt lat="45.41111" lon="5.91869">
        <ele>1587.1</ele>
        <time>2018-01-31T09:45:53Z</time>
      </trkpt>
      <trkpt lat="45.41117" lon="5.91883">
        <ele>1589.1</ele>
        <time>2018-01-31T09:48:29Z</time>
      </trkpt>
      <trkpt lat="45.41133" lon="5.91896">
        <ele>1591</ele>
        <time>2018-01-31T09:49:04Z</time>
      </trkpt>
      <trkpt lat="45.41145" lon="5.91915">
        <ele>1594.3</ele>
        <time>2018-01-31T09:49:40Z</time>
      </trkpt>
      <trkpt lat="45.41155" lon="5.9194">
        <ele>1599.9</ele>
        <time>2018-01-31T09:50:24Z</time>
      </trkpt>
      <trkpt lat="45.41165" lon="5.91953">
        <ele>1601.8</ele>
        <time>2018-01-31T09:51:56Z</time>
      </trkpt>
      <trkpt lat="45.41172" lon="5.91977">
        <ele>1608.5</ele>
        <time>2018-01-31T09:52:52Z</time>
      </trkpt>
      <trkpt lat="45.41175" lon="5.92004">
        <ele>1617</ele>
        <time>2018-01-31T09:53:34Z</time>
      </trkpt>
      <trkpt lat="45.41183" lon="5.92028">
        <ele>1623.4</ele>
        <time>2018-01-31T09:54:20Z</time>
      </trkpt>
      <trkpt lat="45.41183" lon="5.92052">
        <ele>1630.5</ele>
        <time>2018-01-31T09:55:03Z</time>
      </trkpt>
      <trkpt lat="45.41188" lon="5.92073">
        <ele>1638.3</ele>
        <time>2018-01-31T09:56:08Z</time>
      </trkpt>
      <trkpt lat="45.41199" lon="5.92093">
        <ele>1642.3</ele>
        <time>2018-01-31T09:57:33Z</time>
      </trkpt>
      <trkpt lat="45.4121" lon="5.92115">
        <ele>1648.4</ele>
        <time>2018-01-31T09:58:28Z</time>
      </trkpt>
      <trkpt lat="45.4122" lon="5.92134">
        <ele>1653</ele>
        <time>2018-01-31T09:59:13Z</time>
      </trkpt>
      <trkpt lat="45.41232" lon="5.92153">
        <ele>1657.6</ele>
        <time>2018-01-31T10:00:02Z</time>
      </trkpt>
      <trkpt lat="45.41242" lon="5.92173">
        <ele>1663.6</ele>
        <time>2018-01-31T10:01:15Z</time>
      </trkpt>
      <trkpt lat="45.41244" lon="5.92196">
        <ele>1668.3</ele>
        <time>2018-01-31T10:02:19Z</time>
      </trkpt>
      <trkpt lat="45.41243" lon="5.9221">
        <ele>1672.2</ele>
        <time>2018-01-31T10:06:04Z</time>
      </trkpt>
      <trkpt lat="45.41253" lon="5.9223">
        <ele>1674.2</ele>
        <time>2018-01-31T10:07:36Z</time>
      </trkpt>
      <trkpt lat="45.41266" lon="5.92249">
        <ele>1675.9</ele>
        <time>2018-01-31T10:09:22Z</time>
      </trkpt>
      <trkpt lat="45.41274" lon="5.9227">
        <ele>1679.8</ele>
        <time>2018-01-31T10:09:52Z</time>
      </trkpt>
      <trkpt lat="45.41284" lon="5.92292">
        <ele>1683.6</ele>
        <time>2018-01-31T10:10:21Z</time>
      </trkpt>
      <trkpt lat="45.41294" lon="5.92313">
        <ele>1686.8</ele>
        <time>2018-01-31T10:10:51Z</time>
      </trkpt>
      <trkpt lat="45.4131" lon="5.92324">
        <ele>1686.5</ele>
        <time>2018-01-31T10:11:15Z</time>
      </trkpt>
      <trkpt lat="45.41322" lon="5.92344">
        <ele>1689.7</ele>
        <time>2018-01-31T10:11:39Z</time>
      </trkpt>
      <trkpt lat="45.41334" lon="5.92365">
        <ele>1692.7</ele>
        <time>2018-01-31T10:12:07Z</time>
      </trkpt>
      <trkpt lat="45.41348" lon="5.92379">
        <ele>1695.1</ele>
        <time>2018-01-31T10:12:37Z</time>
      </trkpt>
      <trkpt lat="45.4136" lon="5.92397">
        <ele>1698.9</ele>
        <time>2018-01-31T10:13:15Z</time>
      </trkpt>
      <trkpt lat="45.41373" lon="5.92417">
        <ele>1701.3</ele>
        <time>2018-01-31T10:13:54Z</time>
      </trkpt>
      <trkpt lat="45.41385" lon="5.92438">
        <ele>1707.3</ele>
        <time>2018-01-31T10:14:34Z</time>
      </trkpt>
      <trkpt lat="45.41397" lon="5.92458">
        <ele>1710.9</ele>
        <time>2018-01-31T10:15:06Z</time>
      </trkpt>
      <trkpt lat="45.41408" lon="5.92479">
        <ele>1714.8</ele>
        <time>2018-01-31T10:15:36Z</time>
      </trkpt>
      <trkpt lat="45.41419" lon="5.925">
        <ele>1717.9</ele>
        <time>2018-01-31T10:16:09Z</time>
      </trkpt>
      <trkpt lat="45.4143" lon="5.92521">
        <ele>1721.6</ele>
        <time>2018-01-31T10:16:40Z</time>
      </trkpt>
      <trkpt lat="45.41442" lon="5.92541">
        <ele>1726.5</ele>
        <time>2018-01-31T10:17:18Z</time>
      </trkpt>
      <trkpt lat="45.41457" lon="5.92558">
        <ele>1730.8</ele>
        <time>2018-01-31T10:17:59Z</time>
      </trkpt>
      <trkpt lat="45.41471" lon="5.92578">
        <ele>1736.5</ele>
        <time>2018-01-31T10:18:41Z</time>
      </trkpt>
      <trkpt lat="45.41485" lon="5.92597">
        <ele>1740.8</ele>
        <time>2018-01-31T10:19:23Z</time>
      </trkpt>
      <trkpt lat="45.41497" lon="5.92617">
        <ele>1744.9</ele>
        <time>2018-01-31T10:20:01Z</time>
      </trkpt>
      <trkpt lat="45.4151" lon="5.92638">
        <ele>1751.1</ele>
        <time>2018-01-31T10:20:49Z</time>
      </trkpt>
      <trkpt lat="45.41525" lon="5.92655">
        <ele>1754.9</ele>
        <time>2018-01-31T10:21:34Z</time>
      </trkpt>
      <trkpt lat="45.41539" lon="5.9267">
        <ele>1759.4</ele>
        <time>2018-01-31T10:22:19Z</time>
      </trkpt>
      <trkpt lat="45.41552" lon="5.9269">
        <ele>1765.7</ele>
        <time>2018-01-31T10:23:08Z</time>
      </trkpt>
      <trkpt lat="45.41565" lon="5.9271">
        <ele>1772.2</ele>
        <time>2018-01-31T10:23:56Z</time>
      </trkpt>
      <trkpt lat="45.41582" lon="5.92725">
        <ele>1777.8</ele>
        <time>2018-01-31T10:24:40Z</time>
      </trkpt>
      <trkpt lat="45.416" lon="5.92737">
        <ele>1780.9</ele>
        <time>2018-01-31T10:25:23Z</time>
      </trkpt>
      <trkpt lat="45.41617" lon="5.92749">
        <ele>1784.2</ele>
        <time>2018-01-31T10:26:00Z</time>
      </trkpt>
      <trkpt lat="45.41634" lon="5.92758">
        <ele>1785.7</ele>
        <time>2018-01-31T10:26:37Z</time>
      </trkpt>
      <trkpt lat="45.41652" lon="5.9277">
        <ele>1789.2</ele>
        <time>2018-01-31T10:27:14Z</time>
      </trkpt>
      <trkpt lat="45.4167" lon="5.92779">
        <ele>1790.7</ele>
        <time>2018-01-31T10:27:44Z</time>
      </trkpt>
      <trkpt lat="45.41687" lon="5.92767">
        <ele>1793.7</ele>
        <time>2018-01-31T10:28:13Z</time>
      </trkpt>
      <trkpt lat="45.41703" lon="5.92756">
        <ele>1797.7</ele>
        <time>2018-01-31T10:28:45Z</time>
      </trkpt>
      <trkpt lat="45.41719" lon="5.92745">
        <ele>1802.5</ele>
        <time>2018-01-31T10:29:22Z</time>
      </trkpt>
      <trkpt lat="45.41734" lon="5.92733">
        <ele>1807.7</ele>
        <time>2018-01-31T10:30:04Z</time>
      </trkpt>
      <trkpt lat="45.41748" lon="5.92723">
        <ele>1814.2</ele>
        <time>2018-01-31T10:30:59Z</time>
      </trkpt>
      <trkpt lat="45.41762" lon="5.92712">
        <ele>1817.7</ele>
        <time>2018-01-31T10:31:43Z</time>
      </trkpt>
      <trkpt lat="45.41771" lon="5.92709">
        <ele>1819</ele>
        <time>2018-01-31T10:34:57Z</time>
      </trkpt>
      <trkpt lat="45.41783" lon="5.92727">
        <ele>1818.2</ele>
        <time>2018-01-31T10:35:42Z</time>
      </trkpt>
      <trkpt lat="45.41795" lon="5.92747">
        <ele>1815.7</ele>
        <time>2018-01-31T10:36:10Z</time>
      </trkpt>
      <trkpt lat="45.41806" lon="5.92767">
        <ele>1813</ele>
        <time>2018-01-31T10:36:32Z</time>
      </trkpt>
      <trkpt lat="45.41816" lon="5.92788">
        <ele>1809.4</ele>
        <time>2018-01-31T10:37:13Z</time>
      </trkpt>
      <trkpt lat="45.41828" lon="5.92807">
        <ele>1807.1</ele>
        <time>2018-01-31T10:37:42Z</time>
      </trkpt>
      <trkpt lat="45.41838" lon="5.92829">
        <ele>1805.2</ele>
        <time>2018-01-31T10:38:03Z</time>
      </trkpt>
      <trkpt lat="45.41843" lon="5.92853">
        <ele>1805.4</ele>
        <time>2018-01-31T10:38:30Z</time>
      </trkpt>
      <trkpt lat="45.41836" lon="5.92876">
        <ele>1807</ele>
        <time>2018-01-31T10:39:00Z</time>
      </trkpt>
      <trkpt lat="45.41836" lon="5.92902">
        <ele>1808.5</ele>
        <time>2018-01-31T10:39:45Z</time>
      </trkpt>
      <trkpt lat="45.41835" lon="5.92902">
        <ele>1808.5</ele>
        <time>2018-01-31T10:40:42Z</time>
      </trkpt>
      <trkpt lat="45.4183" lon="5.92894">
        <ele>1807.2</ele>
        <time>2018-01-31T12:20:50Z</time>
      </trkpt>
      <trkpt lat="45.41825" lon="5.9288">
        <ele>1805.1</ele>
        <time>2018-01-31T12:30:07Z</time>
      </trkpt>
      <trkpt lat="45.4183" lon="5.92855">
        <ele>1805.4</ele>
        <time>2018-01-31T12:30:33Z</time>
      </trkpt>
      <trkpt lat="45.41832" lon="5.92829">
        <ele>1805.4</ele>
        <time>2018-01-31T12:30:54Z</time>
      </trkpt>
      <trkpt lat="45.41824" lon="5.92806">
        <ele>1807.3</ele>
        <time>2018-01-31T12:31:16Z</time>
      </trkpt>
      <trkpt lat="45.41811" lon="5.92786">
        <ele>1810.2</ele>
        <time>2018-01-31T12:31:43Z</time>
      </trkpt>
      <trkpt lat="45.41802" lon="5.92763">
        <ele>1813.6</ele>
        <time>2018-01-31T12:32:10Z</time>
      </trkpt>
      <trkpt lat="45.4179" lon="5.92743">
        <ele>1816.2</ele>
        <time>2018-01-31T12:32:43Z</time>
      </trkpt>
      <trkpt lat="45.4178" lon="5.92723">
        <ele>1818.8</ele>
        <time>2018-01-31T12:33:26Z</time>
      </trkpt>
      <trkpt lat="45.41769" lon="5.92707">
        <ele>1819</ele>
        <time>2018-01-31T12:34:28Z</time>
      </trkpt>
      <trkpt lat="45.41769" lon="5.92683">
        <ele>1820.2</ele>
        <time>2018-01-31T12:34:52Z</time>
      </trkpt>
      <trkpt lat="45.41769" lon="5.92657">
        <ele>1820</ele>
        <time>2018-01-31T12:35:13Z</time>
      </trkpt>
      <trkpt lat="45.41771" lon="5.9263">
        <ele>1818.9</ele>
        <time>2018-01-31T12:35:32Z</time>
      </trkpt>
      <trkpt lat="45.41769" lon="5.92603">
        <ele>1816.6</ele>
        <time>2018-01-31T12:35:52Z</time>
      </trkpt>
      <trkpt lat="45.41764" lon="5.92578">
        <ele>1813.9</ele>
        <time>2018-01-31T12:36:10Z</time>
      </trkpt>
      <trkpt lat="45.41759" lon="5.92552">
        <ele>1811.1</ele>
        <time>2018-01-31T12:36:27Z</time>
      </trkpt>
      <trkpt lat="45.41752" lon="5.92527">
        <ele>1809</ele>
        <time>2018-01-31T12:36:43Z</time>
      </trkpt>
      <trkpt lat="45.41745" lon="5.92502">
        <ele>1806.4</ele>
        <time>2018-01-31T12:36:59Z</time>
      </trkpt>
      <trkpt lat="45.41739" lon="5.92476">
        <ele>1803.5</ele>
        <time>2018-01-31T12:37:16Z</time>
      </trkpt>
      <trkpt lat="45.41733" lon="5.92452">
        <ele>1801.8</ele>
        <time>2018-01-31T12:37:43Z</time>
      </trkpt>
      <trkpt lat="45.41728" lon="5.92428">
        <ele>1800.6</ele>
        <time>2018-01-31T12:38:29Z</time>
      </trkpt>
      <trkpt lat="45.41723" lon="5.92402">
        <ele>1799</ele>
        <time>2018-01-31T12:38:51Z</time>
      </trkpt>
      <trkpt lat="45.41717" lon="5.92377">
        <ele>1796</ele>
        <time>2018-01-31T12:39:09Z</time>
      </trkpt>
      <trkpt lat="45.41711" lon="5.92352">
        <ele>1793.3</ele>
        <time>2018-01-31T12:39:27Z</time>
      </trkpt>
      <trkpt lat="45.41705" lon="5.92328">
        <ele>1790.6</ele>
        <time>2018-01-31T12:39:45Z</time>
      </trkpt>
      <trkpt lat="45.41702" lon="5.92303">
        <ele>1786.8</ele>
        <time>2018-01-31T12:40:18Z</time>
      </trkpt>
      <trkpt lat="45.41696" lon="5.92277">
        <ele>1783.8</ele>
        <time>2018-01-31T12:40:33Z</time>
      </trkpt>
      <trkpt lat="45.41689" lon="5.92251">
        <ele>1782.1</ele>
        <time>2018-01-31T12:40:49Z</time>
      </trkpt>
      <trkpt lat="45.41683" lon="5.92225">
        <ele>1780</ele>
        <time>2018-01-31T12:41:05Z</time>
      </trkpt>
      <trkpt lat="45.41677" lon="5.92199">
        <ele>1778.3</ele>
        <time>2018-01-31T12:41:20Z</time>
      </trkpt>
      <trkpt lat="45.41672" lon="5.92175">
        <ele>1775.6</ele>
        <time>2018-01-31T12:41:35Z</time>
      </trkpt>
      <trkpt lat="45.41655" lon="5.92164">
        <ele>1775.5</ele>
        <time>2018-01-31T12:41:52Z</time>
      </trkpt>
      <trkpt lat="45.41639" lon="5.92154">
        <ele>1775.6</ele>
        <time>2018-01-31T12:42:07Z</time>
      </trkpt>
      <trkpt lat="45.41621" lon="5.92147">
        <ele>1774.5</ele>
        <time>2018-01-31T12:42:23Z</time>
      </trkpt>
      <trkpt lat="45.41606" lon="5.92135">
        <ele>1773.7</ele>
        <time>2018-01-31T12:43:03Z</time>
      </trkpt>
      <trkpt lat="45.41589" lon="5.92124">
        <ele>1773.1</ele>
        <time>2018-01-31T12:43:22Z</time>
      </trkpt>
      <trkpt lat="45.41574" lon="5.92108">
        <ele>1772.3</ele>
        <time>2018-01-31T12:43:37Z</time>
      </trkpt>
      <trkpt lat="45.41558" lon="5.92093">
        <ele>1771.7</ele>
        <time>2018-01-31T12:43:53Z</time>
      </trkpt>
      <trkpt lat="45.41542" lon="5.9208">
        <ele>1770</ele>
        <time>2018-01-31T12:44:08Z</time>
      </trkpt>
      <trkpt lat="45.41527" lon="5.92064">
        <ele>1768.6</ele>
        <time>2018-01-31T12:44:24Z</time>
      </trkpt>
      <trkpt lat="45.41512" lon="5.9205">
        <ele>1766.4</ele>
        <time>2018-01-31T12:44:38Z</time>
      </trkpt>
      <trkpt lat="45.41497" lon="5.92035">
        <ele>1764.5</ele>
        <time>2018-01-31T12:44:52Z</time>
      </trkpt>
      <trkpt lat="45.4148" lon="5.92022">
        <ele>1761.9</ele>
        <time>2018-01-31T12:45:06Z</time>
      </trkpt>
      <trkpt lat="45.41465" lon="5.92008">
        <ele>1760.1</ele>
        <time>2018-01-31T12:45:20Z</time>
      </trkpt>
      <trkpt lat="45.41448" lon="5.91997">
        <ele>1758.1</ele>
        <time>2018-01-31T12:45:35Z</time>
      </trkpt>
      <trkpt lat="45.41431" lon="5.91984">
        <ele>1755.4</ele>
        <time>2018-01-31T12:45:52Z</time>
      </trkpt>
      <trkpt lat="45.41414" lon="5.9198">
        <ele>1753.4</ele>
        <time>2018-01-31T12:46:10Z</time>
      </trkpt>
      <trkpt lat="45.414" lon="5.91966">
        <ele>1750.7</ele>
        <time>2018-01-31T12:46:58Z</time>
      </trkpt>
      <trkpt lat="45.4139" lon="5.91945">
        <ele>1749.2</ele>
        <time>2018-01-31T12:47:23Z</time>
      </trkpt>
      <trkpt lat="45.41386" lon="5.91918">
        <ele>1746.2</ele>
        <time>2018-01-31T12:47:40Z</time>
      </trkpt>
      <trkpt lat="45.41387" lon="5.91891">
        <ele>1742.1</ele>
        <time>2018-01-31T12:47:57Z</time>
      </trkpt>
      <trkpt lat="45.4139" lon="5.91863">
        <ele>1736.4</ele>
        <time>2018-01-31T12:48:07Z</time>
      </trkpt>
      <trkpt lat="45.41393" lon="5.91835">
        <ele>1729.7</ele>
        <time>2018-01-31T12:48:15Z</time>
      </trkpt>
      <trkpt lat="45.41395" lon="5.91809">
        <ele>1724.7</ele>
        <time>2018-01-31T12:48:29Z</time>
      </trkpt>
      <trkpt lat="45.41397" lon="5.91783">
        <ele>1720.6</ele>
        <time>2018-01-31T12:48:43Z</time>
      </trkpt>
      <trkpt lat="45.41401" lon="5.91759">
        <ele>1717.1</ele>
        <time>2018-01-31T12:48:59Z</time>
      </trkpt>
      <trkpt lat="45.41405" lon="5.91735">
        <ele>1713.2</ele>
        <time>2018-01-31T12:49:30Z</time>
      </trkpt>
      <trkpt lat="45.41413" lon="5.91708">
        <ele>1707.4</ele>
        <time>2018-01-31T12:49:43Z</time>
      </trkpt>
      <trkpt lat="45.41418" lon="5.91681">
        <ele>1701.5</ele>
        <time>2018-01-31T12:49:51Z</time>
      </trkpt>
      <trkpt lat="45.41424" lon="5.91655">
        <ele>1695.6</ele>
        <time>2018-01-31T12:50:03Z</time>
      </trkpt>
      <trkpt lat="45.41427" lon="5.91628">
        <ele>1689.4</ele>
        <time>2018-01-31T12:50:10Z</time>
      </trkpt>
      <trkpt lat="45.41432" lon="5.91601">
        <ele>1683.8</ele>
        <time>2018-01-31T12:50:19Z</time>
      </trkpt>
      <trkpt lat="45.41438" lon="5.91577">
        <ele>1679.5</ele>
        <time>2018-01-31T12:50:32Z</time>
      </trkpt>
      <trkpt lat="45.41444" lon="5.91553">
        <ele>1675.6</ele>
        <time>2018-01-31T12:50:46Z</time>
      </trkpt>
      <trkpt lat="45.41449" lon="5.91528">
        <ele>1671.8</ele>
        <time>2018-01-31T12:51:00Z</time>
      </trkpt>
      <trkpt lat="45.41454" lon="5.91504">
        <ele>1668.2</ele>
        <time>2018-01-31T12:51:31Z</time>
      </trkpt>
      <trkpt lat="45.41456" lon="5.91486">
        <ele>1666.6</ele>
        <time>2018-01-31T12:52:00Z</time>
      </trkpt>
      <trkpt lat="45.41455" lon="5.91479">
        <ele>1666.1</ele>
        <time>2018-01-31T12:53:44Z</time>
      </trkpt>
      <trkpt lat="45.41463" lon="5.91464">
        <ele>1664.8</ele>
        <time>2018-01-31T12:54:48Z</time>
      </trkpt>
      <trkpt lat="45.41466" lon="5.91441">
        <ele>1664</ele>
        <time>2018-01-31T12:56:06Z</time>
      </trkpt>
      <trkpt lat="45.41472" lon="5.91428">
        <ele>1665.8</ele>
        <time>2018-01-31T12:56:47Z</time>
      </trkpt>
      <trkpt lat="45.41467" lon="5.91432">
        <ele>1664.7</ele>
        <time>2018-01-31T12:58:04Z</time>
      </trkpt>
      <trkpt lat="45.41467" lon="5.91431">
        <ele>1664.8</ele>
        <time>2018-01-31T13:00:11Z</time>
      </trkpt>
      <trkpt lat="45.41468" lon="5.91435">
        <ele>1664.6</ele>
        <time>2018-01-31T13:05:29Z</time>
      </trkpt>
      <trkpt lat="45.41465" lon="5.91426">
        <ele>1664.9</ele>
        <time>2018-01-31T13:06:31Z</time>
      </trkpt>
      <trkpt lat="45.4147" lon="5.91425">
        <ele>1665.7</ele>
        <time>2018-01-31T13:10:22Z</time>
      </trkpt>
      <trkpt lat="45.4147" lon="5.91436">
        <ele>1664.7</ele>
        <time>2018-01-31T13:11:07Z</time>
      </trkpt>
      <trkpt lat="45.41459" lon="5.91416">
        <ele>1664.1</ele>
        <time>2018-01-31T13:11:53Z</time>
      </trkpt>
      <trkpt lat="45.4145" lon="5.91394">
        <ele>1660.5</ele>
        <time>2018-01-31T13:12:14Z</time>
      </trkpt>
      <trkpt lat="45.4144" lon="5.91373">
        <ele>1658</ele>
        <time>2018-01-31T13:12:34Z</time>
      </trkpt>
      <trkpt lat="45.41429" lon="5.91353">
        <ele>1657.1</ele>
        <time>2018-01-31T13:12:53Z</time>
      </trkpt>
      <trkpt lat="45.41418" lon="5.91332">
        <ele>1656</ele>
        <time>2018-01-31T13:13:12Z</time>
      </trkpt>
      <trkpt lat="45.41406" lon="5.9131">
        <ele>1654.8</ele>
        <time>2018-01-31T13:13:31Z</time>
      </trkpt>
      <trkpt lat="45.41396" lon="5.9129">
        <ele>1653.1</ele>
        <time>2018-01-31T13:13:49Z</time>
      </trkpt>
      <trkpt lat="45.41386" lon="5.91269">
        <ele>1651</ele>
        <time>2018-01-31T13:14:09Z</time>
      </trkpt>
      <trkpt lat="45.41386" lon="5.91243">
        <ele>1649</ele>
        <time>2018-01-31T13:14:28Z</time>
      </trkpt>
      <trkpt lat="45.41384" lon="5.91218">
        <ele>1644.6</ele>
        <time>2018-01-31T13:14:49Z</time>
      </trkpt>
      <trkpt lat="45.41372" lon="5.91201">
        <ele>1642</ele>
        <time>2018-01-31T13:15:03Z</time>
      </trkpt>
      <trkpt lat="45.41358" lon="5.91185">
        <ele>1640.8</ele>
        <time>2018-01-31T13:15:29Z</time>
      </trkpt>
      <trkpt lat="45.41344" lon="5.91168">
        <ele>1640.7</ele>
        <time>2018-01-31T13:15:53Z</time>
      </trkpt>
      <trkpt lat="45.41331" lon="5.91149">
        <ele>1641.8</ele>
        <time>2018-01-31T13:16:17Z</time>
      </trkpt>
      <trkpt lat="45.41319" lon="5.91128">
        <ele>1642.7</ele>
        <time>2018-01-31T13:16:41Z</time>
      </trkpt>
      <trkpt lat="45.41311" lon="5.91105">
        <ele>1643.2</ele>
        <time>2018-01-31T13:17:09Z</time>
      </trkpt>
      <trkpt lat="45.41306" lon="5.91081">
        <ele>1644.1</ele>
        <time>2018-01-31T13:17:41Z</time>
      </trkpt>
      <trkpt lat="45.41309" lon="5.91055">
        <ele>1644.7</ele>
        <time>2018-01-31T13:18:24Z</time>
      </trkpt>
      <trkpt lat="45.41317" lon="5.91032">
        <ele>1643.7</ele>
        <time>2018-01-31T13:18:56Z</time>
      </trkpt>
      <trkpt lat="45.41322" lon="5.91008">
        <ele>1644.1</ele>
        <time>2018-01-31T13:19:15Z</time>
      </trkpt>
      <trkpt lat="45.41325" lon="5.90983">
        <ele>1644.3</ele>
        <time>2018-01-31T13:19:37Z</time>
      </trkpt>
      <trkpt lat="45.41309" lon="5.90979">
        <ele>1644.9</ele>
        <time>2018-01-31T13:20:16Z</time>
      </trkpt>
      <trkpt lat="45.41295" lon="5.90996">
        <ele>1645.9</ele>
        <time>2018-01-31T13:20:39Z</time>
      </trkpt>
      <trkpt lat="45.41283" lon="5.91021">
        <ele>1646.5</ele>
        <time>2018-01-31T13:21:05Z</time>
      </trkpt>
      <trkpt lat="45.41286" lon="5.91048">
        <ele>1644.3</ele>
        <time>2018-01-31T13:21:30Z</time>
      </trkpt>
      <trkpt lat="45.41284" lon="5.91072">
        <ele>1643.8</ele>
        <time>2018-01-31T13:21:51Z</time>
      </trkpt>
      <trkpt lat="45.41273" lon="5.91096">
        <ele>1643.6</ele>
        <time>2018-01-31T13:22:18Z</time>
      </trkpt>
      <trkpt lat="45.41266" lon="5.9112">
        <ele>1643.2</ele>
        <time>2018-01-31T13:22:42Z</time>
      </trkpt>
      <trkpt lat="45.41247" lon="5.91136">
        <ele>1643.1</ele>
        <time>2018-01-31T13:23:10Z</time>
      </trkpt>
      <trkpt lat="45.41242" lon="5.91151">
        <ele>1643.1</ele>
        <time>2018-01-31T13:24:12Z</time>
      </trkpt>
      <trkpt lat="45.41261" lon="5.91166">
        <ele>1642</ele>
        <time>2018-01-31T13:24:55Z</time>
      </trkpt>
      <trkpt lat="45.41275" lon="5.9118">
        <ele>1643.9</ele>
        <time>2018-01-31T13:25:26Z</time>
      </trkpt>
      <trkpt lat="45.41276" lon="5.91205">
        <ele>1646.8</ele>
        <time>2018-01-31T13:25:55Z</time>
      </trkpt>
      <trkpt lat="45.4127" lon="5.91229">
        <ele>1649.4</ele>
        <time>2018-01-31T13:26:25Z</time>
      </trkpt>
      <trkpt lat="45.41266" lon="5.91254">
        <ele>1651.5</ele>
        <time>2018-01-31T13:26:49Z</time>
      </trkpt>
      <trkpt lat="45.41264" lon="5.91281">
        <ele>1652.9</ele>
        <time>2018-01-31T13:27:15Z</time>
      </trkpt>
      <trkpt lat="45.41272" lon="5.91306">
        <ele>1652.8</ele>
        <time>2018-01-31T13:27:39Z</time>
      </trkpt>
      <trkpt lat="45.4128" lon="5.9133">
        <ele>1654.7</ele>
        <time>2018-01-31T13:28:01Z</time>
      </trkpt>
      <trkpt lat="45.41281" lon="5.91352">
        <ele>1656.3</ele>
        <time>2018-01-31T13:28:29Z</time>
      </trkpt>
      <trkpt lat="45.41272" lon="5.91372">
        <ele>1658.1</ele>
        <time>2018-01-31T13:28:56Z</time>
      </trkpt>
      <trkpt lat="45.41259" lon="5.9138">
        <ele>1658.1</ele>
        <time>2018-01-31T13:31:27Z</time>
      </trkpt>
      <trkpt lat="45.41245" lon="5.91389">
        <ele>1658.6</ele>
        <time>2018-01-31T13:32:06Z</time>
      </trkpt>
      <trkpt lat="45.41231" lon="5.91381">
        <ele>1659.1</ele>
        <time>2018-01-31T13:32:36Z</time>
      </trkpt>
      <trkpt lat="45.41215" lon="5.91371">
        <ele>1657.9</ele>
        <time>2018-01-31T13:33:06Z</time>
      </trkpt>
      <trkpt lat="45.41205" lon="5.91349">
        <ele>1656.2</ele>
        <time>2018-01-31T13:33:34Z</time>
      </trkpt>
      <trkpt lat="45.4119" lon="5.91353">
        <ele>1655.1</ele>
        <time>2018-01-31T13:34:01Z</time>
      </trkpt>
      <trkpt lat="45.41176" lon="5.91349">
        <ele>1652.7</ele>
        <time>2018-01-31T13:34:24Z</time>
      </trkpt>
      <trkpt lat="45.41161" lon="5.91331">
        <ele>1651.6</ele>
        <time>2018-01-31T13:34:46Z</time>
      </trkpt>
      <trkpt lat="45.41144" lon="5.91313">
        <ele>1649.9</ele>
        <time>2018-01-31T13:35:09Z</time>
      </trkpt>
      <trkpt lat="45.41128" lon="5.91301">
        <ele>1650.3</ele>
        <time>2018-01-31T13:35:27Z</time>
      </trkpt>
      <trkpt lat="45.41109" lon="5.91296">
        <ele>1652.2</ele>
        <time>2018-01-31T13:35:52Z</time>
      </trkpt>
      <trkpt lat="45.41092" lon="5.91288">
        <ele>1654.3</ele>
        <time>2018-01-31T13:36:18Z</time>
      </trkpt>
      <trkpt lat="45.41076" lon="5.91276">
        <ele>1656</ele>
        <time>2018-01-31T13:36:47Z</time>
      </trkpt>
      <trkpt lat="45.41063" lon="5.91258">
        <ele>1655</ele>
        <time>2018-01-31T13:37:11Z</time>
      </trkpt>
      <trkpt lat="45.41053" lon="5.91234">
        <ele>1654.2</ele>
        <time>2018-01-31T13:37:31Z</time>
      </trkpt>
      <trkpt lat="45.41042" lon="5.91212">
        <ele>1653.4</ele>
        <time>2018-01-31T13:37:53Z</time>
      </trkpt>
      <trkpt lat="45.41031" lon="5.91188">
        <ele>1651.3</ele>
        <time>2018-01-31T13:38:16Z</time>
      </trkpt>
      <trkpt lat="45.41028" lon="5.91163">
        <ele>1649.9</ele>
        <time>2018-01-31T13:38:44Z</time>
      </trkpt>
      <trkpt lat="45.41018" lon="5.9114">
        <ele>1649.3</ele>
        <time>2018-01-31T13:39:07Z</time>
      </trkpt>
      <trkpt lat="45.41015" lon="5.91141">
        <ele>1649.4</ele>
        <time>2018-01-31T13:40:19Z</time>
      </trkpt>
      <trkpt lat="45.41024" lon="5.91161">
        <ele>1649.4</ele>
        <time>2018-01-31T13:40:58Z</time>
      </trkpt>
      <trkpt lat="45.41025" lon="5.91189">
        <ele>1650.2</ele>
        <time>2018-01-31T13:41:36Z</time>
      </trkpt>
      <trkpt lat="45.41023" lon="5.91193">
        <ele>1649.1</ele>
        <time>2018-01-31T13:42:27Z</time>
      </trkpt>
      <trkpt lat="45.41022" lon="5.91165">
        <ele>1649.1</ele>
        <time>2018-01-31T13:42:48Z</time>
      </trkpt>
      <trkpt lat="45.41017" lon="5.91141">
        <ele>1649.3</ele>
        <time>2018-01-31T13:43:11Z</time>
      </trkpt>
      <trkpt lat="45.41007" lon="5.91159">
        <ele>1647.7</ele>
        <time>2018-01-31T13:43:47Z</time>
      </trkpt>
      <trkpt lat="45.41002" lon="5.91184">
        <ele>1640.8</ele>
        <time>2018-01-31T13:44:48Z</time>
      </trkpt>
      <trkpt lat="45.40992" lon="5.91195">
        <ele>1634.6</ele>
        <time>2018-01-31T13:46:53Z</time>
      </trkpt>
      <trkpt lat="45.40986" lon="5.91208">
        <ele>1631</ele>
        <time>2018-01-31T13:48:38Z</time>
      </trkpt>
      <trkpt lat="45.4098" lon="5.91225">
        <ele>1622.9</ele>
        <time>2018-01-31T13:49:59Z</time>
      </trkpt>
      <trkpt lat="45.40975" lon="5.91238">
        <ele>1614.9</ele>
        <time>2018-01-31T13:51:37Z</time>
      </trkpt>
      <trkpt lat="45.40966" lon="5.91233">
        <ele>1608.2</ele>
        <time>2018-01-31T13:53:38Z</time>
      </trkpt>
      <trkpt lat="45.40957" lon="5.9124">
        <ele>1600</ele>
        <time>2018-01-31T13:55:05Z</time>
      </trkpt>
      <trkpt lat="45.40943" lon="5.91226">
        <ele>1593</ele>
        <time>2018-01-31T13:55:52Z</time>
      </trkpt>
      <trkpt lat="45.40933" lon="5.91206">
        <ele>1595.3</ele>
        <time>2018-01-31T13:56:24Z</time>
      </trkpt>
      <trkpt lat="45.40925" lon="5.91184">
        <ele>1595.9</ele>
        <time>2018-01-31T13:56:53Z</time>
      </trkpt>
      <trkpt lat="45.40913" lon="5.91174">
        <ele>1588.6</ele>
        <time>2018-01-31T13:57:38Z</time>
      </trkpt>
      <trkpt lat="45.40897" lon="5.91171">
        <ele>1578.5</ele>
        <time>2018-01-31T13:58:43Z</time>
      </trkpt>
      <trkpt lat="45.40886" lon="5.91173">
        <ele>1570.5</ele>
        <time>2018-01-31T13:59:55Z</time>
      </trkpt>
      <trkpt lat="45.40876" lon="5.91183">
        <ele>1561</ele>
        <time>2018-01-31T14:02:01Z</time>
      </trkpt>
      <trkpt lat="45.40867" lon="5.91184">
        <ele>1554.5</ele>
        <time>2018-01-31T14:03:11Z</time>
      </trkpt>
      <trkpt lat="45.40858" lon="5.91177">
        <ele>1551.1</ele>
        <time>2018-01-31T14:04:05Z</time>
      </trkpt>
      <trkpt lat="45.40844" lon="5.91168">
        <ele>1548.4</ele>
        <time>2018-01-31T14:05:05Z</time>
      </trkpt>
      <trkpt lat="45.40837" lon="5.91179">
        <ele>1543.5</ele>
        <time>2018-01-31T14:07:05Z</time>
      </trkpt>
      <trkpt lat="45.40828" lon="5.91205">
        <ele>1535.3</ele>
        <time>2018-01-31T14:07:35Z</time>
      </trkpt>
      <trkpt lat="45.40833" lon="5.91231">
        <ele>1531</ele>
        <time>2018-01-31T14:08:01Z</time>
      </trkpt>
      <trkpt lat="45.40814" lon="5.91241">
        <ele>1526.6</ele>
        <time>2018-01-31T14:08:25Z</time>
      </trkpt>
      <trkpt lat="45.40796" lon="5.91238">
        <ele>1521.2</ele>
        <time>2018-01-31T14:08:59Z</time>
      </trkpt>
      <trkpt lat="45.40787" lon="5.91247">
        <ele>1514.4</ele>
        <time>2018-01-31T14:10:07Z</time>
      </trkpt>
      <trkpt lat="45.40789" lon="5.91271">
        <ele>1513.3</ele>
        <time>2018-01-31T14:10:50Z</time>
      </trkpt>
      <trkpt lat="45.40789" lon="5.91282">
        <ele>1512.3</ele>
        <time>2018-01-31T14:11:36Z</time>
      </trkpt>
      <trkpt lat="45.4077" lon="5.91285">
        <ele>1505.7</ele>
        <time>2018-01-31T14:12:31Z</time>
      </trkpt>
      <trkpt lat="45.40756" lon="5.9129">
        <ele>1499.9</ele>
        <time>2018-01-31T14:13:16Z</time>
      </trkpt>
      <trkpt lat="45.40757" lon="5.91288">
        <ele>1500.7</ele>
        <time>2018-01-31T14:14:53Z</time>
      </trkpt>
      <trkpt lat="45.40763" lon="5.91291">
        <ele>1502.5</ele>
        <time>2018-01-31T14:16:21Z</time>
      </trkpt>
      <trkpt lat="45.40769" lon="5.91313">
        <ele>1504.3</ele>
        <time>2018-01-31T14:17:00Z</time>
      </trkpt>
      <trkpt lat="45.40767" lon="5.91309">
        <ele>1503.2</ele>
        <time>2018-01-31T14:17:56Z</time>
      </trkpt>
      <trkpt lat="45.4076" lon="5.91292">
        <ele>1501.3</ele>
        <time>2018-01-31T14:18:59Z</time>
      </trkpt>
      <trkpt lat="45.40757" lon="5.91285">
        <ele>1500.8</ele>
        <time>2018-01-31T14:19:59Z</time>
      </trkpt>
      <trkpt lat="45.40761" lon="5.91292">
        <ele>1501.6</ele>
        <time>2018-01-31T14:21:31Z</time>
      </trkpt>
      <trkpt lat="45.40756" lon="5.91298">
        <ele>1499.3</ele>
        <time>2018-01-31T14:22:33Z</time>
      </trkpt>
      <trkpt lat="45.40756" lon="5.91311">
        <ele>1499.8</ele>
        <time>2018-01-31T14:23:30Z</time>
      </trkpt>
      <trkpt lat="45.40752" lon="5.91299">
        <ele>1497.5</ele>
        <time>2018-01-31T14:24:13Z</time>
      </trkpt>
      <trkpt lat="45.40769" lon="5.91291">
        <ele>1504.7</ele>
        <time>2018-01-31T14:25:04Z</time>
      </trkpt>
      <trkpt lat="45.40762" lon="5.91289">
        <ele>1502.4</ele>
        <time>2018-01-31T14:26:34Z</time>
      </trkpt>
      <trkpt lat="45.40762" lon="5.91295">
        <ele>1501.8</ele>
        <time>2018-01-31T14:28:01Z</time>
      </trkpt>
      <trkpt lat="45.40764" lon="5.91295">
        <ele>1502.3</ele>
        <time>2018-01-31T14:29:14Z</time>
      </trkpt>
      <trkpt lat="45.40768" lon="5.91324">
        <ele>1505.3</ele>
        <time>2018-01-31T14:30:02Z</time>
      </trkpt>
      <trkpt lat="45.40767" lon="5.91336">
        <ele>1507</ele>
        <time>2018-01-31T14:31:13Z</time>
      </trkpt>
      <trkpt lat="45.40765" lon="5.91316">
        <ele>1503.7</ele>
        <time>2018-01-31T14:32:33Z</time>
      </trkpt>
      <trkpt lat="45.40769" lon="5.91318">
        <ele>1504.9</ele>
        <time>2018-01-31T14:33:31Z</time>
      </trkpt>
      <trkpt lat="45.40783" lon="5.91335">
        <ele>1509.2</ele>
        <time>2018-01-31T14:34:37Z</time>
      </trkpt>
      <trkpt lat="45.4077" lon="5.91333">
        <ele>1506.7</ele>
        <time>2018-01-31T14:35:37Z</time>
      </trkpt>
      <trkpt lat="45.40761" lon="5.91328">
        <ele>1505.3</ele>
        <time>2018-01-31T14:36:10Z</time>
      </trkpt>
      <trkpt lat="45.40769" lon="5.9134">
        <ele>1507.4</ele>
        <time>2018-01-31T14:37:08Z</time>
      </trkpt>
      <trkpt lat="45.40769" lon="5.91325">
        <ele>1505.7</ele>
        <time>2018-01-31T14:37:41Z</time>
      </trkpt>
      <trkpt lat="45.40784" lon="5.91337">
        <ele>1509.6</ele>
        <time>2018-01-31T14:38:21Z</time>
      </trkpt>
      <trkpt lat="45.4079" lon="5.91359">
        <ele>1510.5</ele>
        <time>2018-01-31T14:38:59Z</time>
      </trkpt>
      <trkpt lat="45.40806" lon="5.91358">
        <ele>1517.2</ele>
        <time>2018-01-31T14:39:46Z</time>
      </trkpt>
      <trkpt lat="45.40818" lon="5.9135">
        <ele>1518.8</ele>
        <time>2018-01-31T14:40:29Z</time>
      </trkpt>
      <trkpt lat="45.40836" lon="5.91349">
        <ele>1520.3</ele>
        <time>2018-01-31T14:40:54Z</time>
      </trkpt>
      <trkpt lat="45.40843" lon="5.91374">
        <ele>1520.2</ele>
        <time>2018-01-31T14:41:14Z</time>
      </trkpt>
      <trkpt lat="45.40843" lon="5.91399">
        <ele>1519.6</ele>
        <time>2018-01-31T14:41:30Z</time>
      </trkpt>
      <trkpt lat="45.40842" lon="5.91425">
        <ele>1519.6</ele>
        <time>2018-01-31T14:41:49Z</time>
      </trkpt>
      <trkpt lat="45.40851" lon="5.91447">
        <ele>1521.6</ele>
        <time>2018-01-31T14:42:16Z</time>
      </trkpt>
      <trkpt lat="45.40859" lon="5.91472">
        <ele>1522.8</ele>
        <time>2018-01-31T14:42:40Z</time>
      </trkpt>
      <trkpt lat="45.40861" lon="5.91483">
        <ele>1523.8</ele>
        <time>2018-01-31T14:43:19Z</time>
      </trkpt>
      <trkpt lat="45.40858" lon="5.91474">
        <ele>1522.9</ele>
        <time>2018-01-31T14:46:58Z</time>
      </trkpt>
      <trkpt lat="45.40852" lon="5.91448">
        <ele>1521.8</ele>
        <time>2018-01-31T14:47:33Z</time>
      </trkpt>
      <trkpt lat="45.40842" lon="5.91425">
        <ele>1519.5</ele>
        <time>2018-01-31T14:47:52Z</time>
      </trkpt>
      <trkpt lat="45.40839" lon="5.91401">
        <ele>1519.2</ele>
        <time>2018-01-31T14:48:10Z</time>
      </trkpt>
      <trkpt lat="45.40841" lon="5.91375">
        <ele>1520</ele>
        <time>2018-01-31T14:48:30Z</time>
      </trkpt>
      <trkpt lat="45.40831" lon="5.9135">
        <ele>1519.8</ele>
        <time>2018-01-31T14:48:48Z</time>
      </trkpt>
      <trkpt lat="45.40814" lon="5.91352">
        <ele>1518.4</ele>
        <time>2018-01-31T14:49:21Z</time>
      </trkpt>
      <trkpt lat="45.40798" lon="5.9136">
        <ele>1513.8</ele>
        <time>2018-01-31T14:50:02Z</time>
      </trkpt>
      <trkpt lat="45.40789" lon="5.91343">
        <ele>1511</ele>
        <time>2018-01-31T14:50:31Z</time>
      </trkpt>
      <trkpt lat="45.4077" lon="5.91331">
        <ele>1506.5</ele>
        <time>2018-01-31T14:50:55Z</time>
      </trkpt>
      <trkpt lat="45.40761" lon="5.91304">
        <ele>1500.5</ele>
        <time>2018-01-31T14:51:24Z</time>
      </trkpt>
      <trkpt lat="45.40748" lon="5.9127">
        <ele>1499.1</ele>
        <time>2018-01-31T14:51:51Z</time>
      </trkpt>
      <trkpt lat="45.40733" lon="5.91263">
        <ele>1496.6</ele>
        <time>2018-01-31T14:52:15Z</time>
      </trkpt>
      <trkpt lat="45.40718" lon="5.91245">
        <ele>1492</ele>
        <time>2018-01-31T14:52:30Z</time>
      </trkpt>
      <trkpt lat="45.40704" lon="5.91222">
        <ele>1493.2</ele>
        <time>2018-01-31T14:52:54Z</time>
      </trkpt>
      <trkpt lat="45.4069" lon="5.91197">
        <ele>1487.1</ele>
        <time>2018-01-31T14:53:16Z</time>
      </trkpt>
      <trkpt lat="45.40673" lon="5.91178">
        <ele>1487.1</ele>
        <time>2018-01-31T14:53:34Z</time>
      </trkpt>
      <trkpt lat="45.40663" lon="5.91148">
        <ele>1480.1</ele>
        <time>2018-01-31T14:53:52Z</time>
      </trkpt>
      <trkpt lat="45.40657" lon="5.91118">
        <ele>1477.2</ele>
        <time>2018-01-31T14:54:09Z</time>
      </trkpt>
      <trkpt lat="45.40645" lon="5.91094">
        <ele>1472.2</ele>
        <time>2018-01-31T14:54:25Z</time>
      </trkpt>
      <trkpt lat="45.40628" lon="5.91087">
        <ele>1466.6</ele>
        <time>2018-01-31T14:54:42Z</time>
      </trkpt>
      <trkpt lat="45.40613" lon="5.91068">
        <ele>1462.3</ele>
        <time>2018-01-31T14:55:01Z</time>
      </trkpt>
      <trkpt lat="45.40598" lon="5.91039">
        <ele>1461.1</ele>
        <time>2018-01-31T14:55:23Z</time>
      </trkpt>
      <trkpt lat="45.40583" lon="5.91016">
        <ele>1457.7</ele>
        <time>2018-01-31T14:55:40Z</time>
      </trkpt>
      <trkpt lat="45.40571" lon="5.90991">
        <ele>1455.6</ele>
        <time>2018-01-31T14:55:54Z</time>
      </trkpt>
      <trkpt lat="45.40557" lon="5.90971">
        <ele>1454.1</ele>
        <time>2018-01-31T14:56:08Z</time>
      </trkpt>
      <trkpt lat="45.40546" lon="5.90948">
        <ele>1452.8</ele>
        <time>2018-01-31T14:56:24Z</time>
      </trkpt>
      <trkpt lat="45.40535" lon="5.90923">
        <ele>1451.7</ele>
        <time>2018-01-31T14:56:39Z</time>
      </trkpt>
      <trkpt lat="45.40524" lon="5.909">
        <ele>1450.3</ele>
        <time>2018-01-31T14:56:54Z</time>
      </trkpt>
      <trkpt lat="45.40513" lon="5.90877">
        <ele>1449.6</ele>
        <time>2018-01-31T14:57:09Z</time>
      </trkpt>
      <trkpt lat="45.40503" lon="5.9085">
        <ele>1448.3</ele>
        <time>2018-01-31T14:57:28Z</time>
      </trkpt>
      <trkpt lat="45.40495" lon="5.90812">
        <ele>1448.5</ele>
        <time>2018-01-31T14:57:56Z</time>
      </trkpt>
      <trkpt lat="45.40478" lon="5.90788">
        <ele>1445.6</ele>
        <time>2018-01-31T14:58:19Z</time>
      </trkpt>
      <trkpt lat="45.40463" lon="5.90762">
        <ele>1441.9</ele>
        <time>2018-01-31T14:58:45Z</time>
      </trkpt>
      <trkpt lat="45.40449" lon="5.90729">
        <ele>1433.6</ele>
        <time>2018-01-31T14:59:08Z</time>
      </trkpt>
      <trkpt lat="45.4043" lon="5.9071">
        <ele>1427.8</ele>
        <time>2018-01-31T14:59:29Z</time>
      </trkpt>
      <trkpt lat="45.40417" lon="5.9068">
        <ele>1416.5</ele>
        <time>2018-01-31T14:59:51Z</time>
      </trkpt>
      <trkpt lat="45.40407" lon="5.90655">
        <ele>1413.7</ele>
        <time>2018-01-31T15:00:13Z</time>
      </trkpt>
      <trkpt lat="45.40395" lon="5.90624">
        <ele>1403.1</ele>
        <time>2018-01-31T15:00:35Z</time>
      </trkpt>
      <trkpt lat="45.4038" lon="5.90604">
        <ele>1400</ele>
        <time>2018-01-31T15:01:00Z</time>
      </trkpt>
      <trkpt lat="45.40365" lon="5.90587">
        <ele>1396.8</ele>
        <time>2018-01-31T15:01:23Z</time>
      </trkpt>
      <trkpt lat="45.4035" lon="5.90574">
        <ele>1393.6</ele>
        <time>2018-01-31T15:01:44Z</time>
      </trkpt>
      <trkpt lat="45.40347" lon="5.90553">
        <ele>1375.8</ele>
        <time>2018-01-31T15:02:08Z</time>
      </trkpt>
      <trkpt lat="45.40332" lon="5.90531">
        <ele>1359.8</ele>
        <time>2018-01-31T15:02:27Z</time>
      </trkpt>
      <trkpt lat="45.40322" lon="5.90514">
        <ele>1349.4</ele>
        <time>2018-01-31T15:02:55Z</time>
      </trkpt>
      <trkpt lat="45.40332" lon="5.90493">
        <ele>1335.1</ele>
        <time>2018-01-31T15:03:30Z</time>
      </trkpt>
      <trkpt lat="45.40345" lon="5.90488">
        <ele>1327.9</ele>
        <time>2018-01-31T15:04:00Z</time>
      </trkpt>
      <trkpt lat="45.4034" lon="5.90468">
        <ele>1317.9</ele>
        <time>2018-01-31T15:04:21Z</time>
      </trkpt>
      <trkpt lat="45.40351" lon="5.9046">
        <ele>1310.5</ele>
        <time>2018-01-31T15:04:56Z</time>
      </trkpt>
      <trkpt lat="45.40346" lon="5.90441">
        <ele>1301.9</ele>
        <time>2018-01-31T15:05:27Z</time>
      </trkpt>
      <trkpt lat="45.40349" lon="5.90412">
        <ele>1287.6</ele>
        <time>2018-01-31T15:05:58Z</time>
      </trkpt>
      <trkpt lat="45.40336" lon="5.90399">
        <ele>1283.5</ele>
        <time>2018-01-31T15:06:18Z</time>
      </trkpt>
      <trkpt lat="45.40325" lon="5.90373">
        <ele>1274.2</ele>
        <time>2018-01-31T15:06:47Z</time>
      </trkpt>
      <trkpt lat="45.40331" lon="5.90349">
        <ele>1264.4</ele>
        <time>2018-01-31T15:07:18Z</time>
      </trkpt>
      <trkpt lat="45.40341" lon="5.90341">
        <ele>1262.7</ele>
        <time>2018-01-31T15:07:59Z</time>
      </trkpt>
      <trkpt lat="45.4034" lon="5.90309">
        <ele>1253.3</ele>
        <time>2018-01-31T15:08:32Z</time>
      </trkpt>
      <trkpt lat="45.40344" lon="5.90311">
        <ele>1255.4</ele>
        <time>2018-01-31T15:09:17Z</time>
      </trkpt>
      <trkpt lat="45.40352" lon="5.90318">
        <ele>1259.9</ele>
        <time>2018-01-31T15:09:57Z</time>
      </trkpt>
      <trkpt lat="45.40358" lon="5.9031">
        <ele>1260.4</ele>
        <time>2018-01-31T15:10:43Z</time>
      </trkpt>
      <trkpt lat="45.40347" lon="5.90302">
        <ele>1254.5</ele>
        <time>2018-01-31T15:11:39Z</time>
      </trkpt>
      <trkpt lat="45.40339" lon="5.90291">
        <ele>1248.9</ele>
        <time>2018-01-31T15:12:24Z</time>
      </trkpt>
      <trkpt lat="45.40339" lon="5.90274">
        <ele>1245.3</ele>
        <time>2018-01-31T15:13:06Z</time>
      </trkpt>
      <trkpt lat="45.40319" lon="5.90291">
        <ele>1243</ele>
        <time>2018-01-31T15:13:44Z</time>
      </trkpt>
      <trkpt lat="45.40312" lon="5.9026">
        <ele>1231.2</ele>
        <time>2018-01-31T15:14:13Z</time>
      </trkpt>
      <trkpt lat="45.40315" lon="5.90227">
        <ele>1225.6</ele>
        <time>2018-01-31T15:14:43Z</time>
      </trkpt>
      <trkpt lat="45.40307" lon="5.90211">
        <ele>1218.8</ele>
        <time>2018-01-31T15:15:17Z</time>
      </trkpt>
      <trkpt lat="45.40306" lon="5.90173">
        <ele>1210</ele>
        <time>2018-01-31T15:15:54Z</time>
      </trkpt>
      <trkpt lat="45.40317" lon="5.90149">
        <ele>1201.5</ele>
        <time>2018-01-31T15:16:30Z</time>
      </trkpt>
      <trkpt lat="45.40326" lon="5.90128">
        <ele>1197.3</ele>
        <time>2018-01-31T15:17:00Z</time>
      </trkpt>
      <trkpt lat="45.4032" lon="5.90104">
        <ele>1186.4</ele>
        <time>2018-01-31T15:17:39Z</time>
      </trkpt>
      <trkpt lat="45.40324" lon="5.90067">
        <ele>1177.9</ele>
        <time>2018-01-31T15:18:15Z</time>
      </trkpt>
      <trkpt lat="45.40329" lon="5.90034">
        <ele>1170</ele>
        <time>2018-01-31T15:18:50Z</time>
      </trkpt>
      <trkpt lat="45.40334" lon="5.90009">
        <ele>1167.8</ele>
        <time>2018-01-31T15:19:21Z</time>
      </trkpt>
      <trkpt lat="45.40335" lon="5.89982">
        <ele>1165.8</ele>
        <time>2018-01-31T15:20:02Z</time>
      </trkpt>
      <trkpt lat="45.40344" lon="5.89961">
        <ele>1158.1</ele>
        <time>2018-01-31T15:20:30Z</time>
      </trkpt>
      <trkpt lat="45.40349" lon="5.89926">
        <ele>1141.8</ele>
        <time>2018-01-31T15:20:58Z</time>
      </trkpt>
      <trkpt lat="45.40368" lon="5.89892">
        <ele>1138.8</ele>
        <time>2018-01-31T15:21:30Z</time>
      </trkpt>
      <trkpt lat="45.40382" lon="5.89853">
        <ele>1131.8</ele>
        <time>2018-01-31T15:22:01Z</time>
      </trkpt>
      <trkpt lat="45.4039" lon="5.89804">
        <ele>1127.3</ele>
        <time>2018-01-31T15:22:33Z</time>
      </trkpt>
      <trkpt lat="45.40411" lon="5.89764">
        <ele>1131.9</ele>
        <time>2018-01-31T15:23:08Z</time>
      </trkpt>
      <trkpt lat="45.40431" lon="5.89711">
        <ele>1133.5</ele>
        <time>2018-01-31T15:23:43Z</time>
      </trkpt>
      <trkpt lat="45.40435" lon="5.89665">
        <ele>1128.2</ele>
        <time>2018-01-31T15:24:15Z</time>
      </trkpt>
      <trkpt lat="45.40443" lon="5.89624">
        <ele>1132.1</ele>
        <time>2018-01-31T15:24:45Z</time>
      </trkpt>
      <trkpt lat="45.40463" lon="5.89602">
        <ele>1132.3</ele>
        <time>2018-01-31T15:25:11Z</time>
      </trkpt>
      <trkpt lat="45.40487" lon="5.89587">
        <ele>1131</ele>
        <time>2018-01-31T15:25:38Z</time>
      </trkpt>
      <trkpt lat="45.40522" lon="5.89555">
        <ele>1130.7</ele>
        <time>2018-01-31T15:26:12Z</time>
      </trkpt>
      <trkpt lat="45.40543" lon="5.8954">
        <ele>1129</ele>
        <time>2018-01-31T15:26:45Z</time>
      </trkpt>
      <trkpt lat="45.40578" lon="5.89528">
        <ele>1124.6</ele>
        <time>2018-01-31T15:27:17Z</time>
      </trkpt>
      <trkpt lat="45.406" lon="5.89528">
        <ele>1117.1</ele>
        <time>2018-01-31T15:27:46Z</time>
      </trkpt>
      <trkpt lat="45.40651" lon="5.89551">
        <ele>1112.7</ele>
        <time>2018-01-31T15:28:30Z</time>
      </trkpt>
      <trkpt lat="45.40684" lon="5.89559">
        <ele>1106.8</ele>
        <time>2018-01-31T15:29:04Z</time>
      </trkpt>
      <trkpt lat="45.4072" lon="5.89562">
        <ele>1106.4</ele>
        <time>2018-01-31T15:29:35Z</time>
      </trkpt>
      <trkpt lat="45.40742" lon="5.89564">
        <ele>1107.8</ele>
        <time>2018-01-31T15:30:02Z</time>
      </trkpt>
      <trkpt lat="45.40771" lon="5.89551">
        <ele>1105.6</ele>
        <time>2018-01-31T15:30:30Z</time>
      </trkpt>
      <trkpt lat="45.40799" lon="5.89539">
        <ele>1101.4</ele>
        <time>2018-01-31T15:30:56Z</time>
      </trkpt>
      <trkpt lat="45.40832" lon="5.89508">
        <ele>1097.8</ele>
        <time>2018-01-31T15:31:28Z</time>
      </trkpt>
      <trkpt lat="45.40852" lon="5.8946">
        <ele>1091.9</ele>
        <time>2018-01-31T15:32:03Z</time>
      </trkpt>
      <trkpt lat="45.40853" lon="5.89416">
        <ele>1087.4</ele>
        <time>2018-01-31T15:32:36Z</time>
      </trkpt>
      <trkpt lat="45.40858" lon="5.89379">
        <ele>1089.6</ele>
        <time>2018-01-31T15:33:03Z</time>
      </trkpt>
      <trkpt lat="45.40856" lon="5.89341">
        <ele>1092</ele>
        <time>2018-01-31T15:33:32Z</time>
      </trkpt>
      <trkpt lat="45.40876" lon="5.89306">
        <ele>1097</ele>
        <time>2018-01-31T15:34:07Z</time>
      </trkpt>
      <trkpt lat="45.40902" lon="5.89277">
        <ele>1099.1</ele>
        <time>2018-01-31T15:34:40Z</time>
      </trkpt>
      <trkpt lat="45.40927" lon="5.89265">
        <ele>1102.3</ele>
        <time>2018-01-31T15:35:06Z</time>
      </trkpt>
      <trkpt lat="45.40946" lon="5.89252">
        <ele>1104</ele>
        <time>2018-01-31T15:35:36Z</time>
      </trkpt>
      <trkpt lat="45.40963" lon="5.89225">
        <ele>1104.7</ele>
        <time>2018-01-31T15:36:05Z</time>
      </trkpt>
      <trkpt lat="45.40988" lon="5.89189">
        <ele>1103.1</ele>
        <time>2018-01-31T15:36:37Z</time>
      </trkpt>
      <trkpt lat="45.41007" lon="5.89164">
        <ele>1102.7</ele>
        <time>2018-01-31T15:37:02Z</time>
      </trkpt>
      <trkpt lat="45.4103" lon="5.89141">
        <ele>1106</ele>
        <time>2018-01-31T15:37:34Z</time>
      </trkpt>
      <trkpt lat="45.41036" lon="5.89111">
        <ele>1106.5</ele>
        <time>2018-01-31T15:37:59Z</time>
      </trkpt>
      <trkpt lat="45.41035" lon="5.89057">
        <ele>1107.7</ele>
        <time>2018-01-31T15:38:35Z</time>
      </trkpt>
      <trkpt lat="45.41038" lon="5.89013">
        <ele>1107.6</ele>
        <time>2018-01-31T15:39:05Z</time>
      </trkpt>
      <trkpt lat="45.41047" lon="5.88971">
        <ele>1109.9</ele>
        <time>2018-01-31T15:39:37Z</time>
      </trkpt>
      <trkpt lat="45.4106" lon="5.88933">
        <ele>1106.4</ele>
        <time>2018-01-31T15:40:13Z</time>
      </trkpt>
      <trkpt lat="45.41077" lon="5.8891">
        <ele>1100.6</ele>
        <time>2018-01-31T15:40:47Z</time>
      </trkpt>
      <trkpt lat="45.41097" lon="5.88886">
        <ele>1092.7</ele>
        <time>2018-01-31T15:41:21Z</time>
      </trkpt>
      <trkpt lat="45.41115" lon="5.8886">
        <ele>1081.9</ele>
        <time>2018-01-31T15:41:51Z</time>
      </trkpt>
      <trkpt lat="45.41137" lon="5.88834">
        <ele>1074</ele>
        <time>2018-01-31T15:42:23Z</time>
      </trkpt>
      <trkpt lat="45.41154" lon="5.88805">
        <ele>1065.3</ele>
        <time>2018-01-31T15:42:55Z</time>
      </trkpt>
      <trkpt lat="45.41171" lon="5.88772">
        <ele>1057</ele>
        <time>2018-01-31T15:43:27Z</time>
      </trkpt>
      <trkpt lat="45.41185" lon="5.88732">
        <ele>1049</ele>
        <time>2018-01-31T15:44:00Z</time>
      </trkpt>
      <trkpt lat="45.41205" lon="5.88711">
        <ele>1045.5</ele>
        <time>2018-01-31T15:44:25Z</time>
      </trkpt>
      <trkpt lat="45.41223" lon="5.8869">
        <ele>1042.3</ele>
        <time>2018-01-31T15:44:44Z</time>
      </trkpt>
      <trkpt lat="45.41239" lon="5.88668">
        <ele>1040.8</ele>
        <time>2018-01-31T15:45:01Z</time>
      </trkpt>
      <trkpt lat="45.41254" lon="5.88649">
        <ele>1041.3</ele>
        <time>2018-01-31T15:45:22Z</time>
      </trkpt>
    </trkseg>
  </trk>
</gpx>